METAR Data
IDs: Format: Raw Decoded Include TAF

Data at: 0205 UTC 01 Mar 2021

KLOT 010155Z AUTO 31016G19KT 10SM CLR 02/00 A2988 RMK AO2 T00200000